createdAt,value
2023-02-13T00:01:38.828Z,0
2023-02-13T00:07:58.803Z,0
2023-02-13T00:14:21.819Z,0
2023-02-13T00:20:41.859Z,0
2023-02-13T00:27:04.817Z,0
2023-02-13T00:33:24.834Z,0
2023-02-13T00:39:47.783Z,0
2023-02-13T00:46:07.852Z,0
2023-02-13T00:52:30.806Z,0
2023-02-13T00:58:50.860Z,0
2023-02-13T01:05:13.769Z,0
2023-02-13T01:11:33.867Z,0
2023-02-13T01:17:56.805Z,0
2023-02-13T01:24:16.799Z,0
2023-02-13T01:30:39.841Z,0
2023-02-13T01:36:59.895Z,0
2023-02-13T01:43:22.795Z,0
2023-02-13T01:49:42.874Z,0
2023-02-13T01:56:05.836Z,0
2023-02-13T02:02:26.110Z,0
2023-02-13T02:08:48.814Z,0
2023-02-13T02:15:08.850Z,0
2023-02-13T02:21:31.786Z,0
2023-02-13T02:27:51.786Z,0
2023-02-13T02:34:14.802Z,0
2023-02-13T02:40:34.850Z,0
2023-02-13T02:46:57.798Z,0
2023-02-13T02:53:17.885Z,0
2023-02-13T02:59:40.782Z,0
2023-02-13T03:06:00.830Z,0
2023-02-13T03:12:23.809Z,0
2023-02-13T03:18:43.822Z,0
2023-02-13T03:25:06.807Z,0
2023-02-13T03:31:26.821Z,0
2023-02-13T03:37:49.794Z,0
2023-02-13T03:44:09.765Z,0
2023-02-13T03:50:32.875Z,0
2023-02-13T03:56:52.801Z,0
2023-02-13T04:03:15.798Z,0
2023-02-13T04:09:35.820Z,0
2023-02-13T04:15:58.824Z,0
2023-02-13T04:38:31.297Z,0
2023-02-13T04:44:50.742Z,0
2023-02-13T04:51:13.747Z,0
2023-02-13T04:57:33.786Z,0
2023-02-13T05:03:56.842Z,0
2023-02-13T05:10:16.801Z,0
2023-02-13T05:16:39.867Z,0
2023-02-13T05:22:59.832Z,0
2023-02-13T05:29:22.974Z,0
2023-02-13T05:35:42.834Z,0
2023-02-13T05:42:05.779Z,0
2023-02-13T05:48:25.760Z,0
2023-02-13T05:54:48.807Z,0
2023-02-13T06:01:08.759Z,0
2023-02-13T06:07:31.783Z,0
2023-02-13T06:13:51.806Z,0
2023-02-13T06:20:14.832Z,0
2023-02-13T06:26:34.765Z,0
2023-02-13T06:32:57.804Z,0
2023-02-13T06:39:17.874Z,0
2023-02-13T06:45:40.875Z,0
2023-02-13T06:52:00.832Z,0
2023-02-13T06:58:23.776Z,0
2023-02-13T07:04:43.799Z,0
2023-02-13T07:11:06.841Z,5.62
2023-02-13T07:17:26.769Z,5.62
2023-02-13T07:23:49.772Z,5.62
2023-02-13T07:30:09.885Z,11.25
2023-02-13T07:36:36.729Z,11.25
2023-02-13T07:42:59.826Z,11.25
2023-02-13T07:49:24.510Z,16.88
2023-02-13T07:55:45.557Z,16.88
2023-02-13T08:02:08.956Z,16.88
2023-02-13T08:08:28.847Z,16.88
2023-02-13T08:14:51.879Z,22.5
2023-02-13T08:21:11.793Z,22.5
2023-02-13T08:27:34.814Z,22.5
2023-02-13T08:33:54.820Z,22.5
2023-02-13T08:40:17.798Z,28.12
2023-02-13T08:46:37.960Z,28.12
2023-02-13T08:53:00.775Z,28.12
2023-02-13T08:59:20.817Z,28.12
2023-02-13T09:05:43.852Z,33.75
2023-02-13T09:12:03.826Z,33.75
2023-02-13T09:18:26.822Z,33.75
2023-02-13T09:24:46.794Z,39.38
2023-02-13T09:31:09.824Z,39.38
2023-02-13T09:54:32.310Z,50.62
2023-02-13T10:00:51.768Z,56.25
2023-02-13T10:07:14.835Z,56.25
2023-02-13T10:13:34.783Z,61.88
2023-02-13T10:19:57.765Z,61.88
2023-02-13T10:26:20.100Z,61.88
2023-02-13T10:32:40.803Z,67.5
2023-02-13T10:39:00.794Z,67.5
2023-02-13T10:45:23.746Z,73.12
2023-02-13T10:51:43.780Z,73.12
2023-02-13T10:58:06.907Z,73.12
2023-02-13T11:04:26.820Z,73.12
2023-02-13T11:10:49.805Z,78.75
2023-02-13T11:17:09.787Z,78.75
2023-02-13T11:23:32.798Z,84.38
2023-02-13T11:29:52.793Z,84.38
2023-02-13T11:36:15.743Z,90
2023-02-13T11:42:35.776Z,90
2023-02-13T11:48:58.770Z,90
2023-02-13T11:55:18.784Z,95.62
2023-02-13T12:01:41.765Z,95.62
2023-02-13T12:08:01.792Z,95.62
2023-02-13T12:14:24.777Z,101.25
2023-02-13T12:20:44.736Z,101.25
2023-02-13T12:27:07.841Z,106.88
2023-02-13T12:33:27.769Z,106.88
2023-02-13T12:39:50.780Z,106.88
2023-02-13T12:46:10.927Z,112.5
2023-02-13T12:52:33.752Z,112.5
2023-02-13T12:58:53.771Z,112.5
2023-02-13T13:05:17.038Z,112.5
2023-02-13T13:11:36.726Z,112.5
2023-02-13T13:17:59.781Z,112.5
2023-02-13T13:24:19.773Z,106.88
2023-02-13T13:30:42.782Z,106.88
2023-02-13T13:37:02.738Z,106.88
2023-02-13T13:43:25.778Z,101.25
2023-02-13T13:49:45.759Z,95.62
2023-02-13T13:56:08.773Z,95.62
2023-02-13T14:02:28.820Z,90
2023-02-13T14:08:51.742Z,84.38
2023-02-13T14:15:11.750Z,84.38
2023-02-13T14:21:34.814Z,84.38
2023-02-13T14:27:54.750Z,78.75
2023-02-13T14:34:17.781Z,78.75
2023-02-13T14:40:37.763Z,73.12
2023-02-13T14:47:00.737Z,73.12
2023-02-13T14:53:20.755Z,67.5
2023-02-13T14:59:43.786Z,61.88
2023-02-13T15:06:03.787Z,56.25
2023-02-13T15:28:52.895Z,28.12
2023-02-13T15:35:15.736Z,22.5
2023-02-13T15:41:35.815Z,16.88
2023-02-13T15:47:58.787Z,11.25
2023-02-13T15:54:18.760Z,11.25
2023-02-13T16:00:41.885Z,11.25
2023-02-13T16:07:01.802Z,11.25
2023-02-13T16:13:24.784Z,5.62
2023-02-13T16:19:44.751Z,5.62
2023-02-13T16:26:07.785Z,5.62
2023-02-13T16:32:27.796Z,0
2023-02-13T16:38:50.806Z,0
2023-02-13T16:45:10.841Z,0
2023-02-13T16:51:33.785Z,0
2023-02-13T16:57:53.849Z,0
2023-02-13T17:04:16.870Z,0
2023-02-13T17:10:36.792Z,0
2023-02-13T17:17:02.375Z,0
2023-02-13T17:23:22.875Z,0
2023-02-13T17:29:46.084Z,0
2023-02-13T17:36:05.805Z,0
2023-02-13T17:42:28.810Z,0
2023-02-13T17:48:48.866Z,0
2023-02-13T17:55:11.833Z,0
2023-02-13T18:01:31.882Z,0
2023-02-13T18:07:54.754Z,0
2023-02-13T18:14:14.818Z,0
2023-02-13T18:20:37.985Z,0
2023-02-13T18:26:58.222Z,0
2023-02-13T18:33:20.898Z,0
2023-02-13T18:39:40.820Z,0
2023-02-13T18:46:03.873Z,0
2023-02-13T18:52:23.790Z,0
2023-02-13T18:58:46.837Z,0
2023-02-13T19:05:06.757Z,0
2023-02-13T19:11:29.804Z,0
2023-02-13T19:17:49.782Z,0
2023-02-13T19:24:12.798Z,0
2023-02-13T19:30:32.864Z,0
2023-02-13T19:36:55.843Z,0
2023-02-13T19:43:15.761Z,0
2023-02-13T19:49:38.838Z,0
2023-02-13T19:55:58.865Z,0
2023-02-13T20:02:21.792Z,0
2023-02-13T20:08:43.003Z,0
2023-02-13T20:15:04.853Z,0
2023-02-13T20:21:24.801Z,0
2023-02-13T20:44:48.777Z,0
2023-02-13T20:51:11.733Z,0
2023-02-13T20:57:31.796Z,0
2023-02-13T21:03:54.813Z,0
2023-02-13T21:10:14.766Z,0
2023-02-13T21:16:37.873Z,0
2023-02-13T21:22:57.816Z,0
2023-02-13T21:29:20.817Z,0
2023-02-13T21:35:40.842Z,0
2023-02-13T21:42:03.804Z,0
2023-02-13T21:48:23.823Z,0
2023-02-13T21:54:46.805Z,0
2023-02-13T22:01:11.475Z,0
2023-02-13T22:07:29.825Z,0
2023-02-13T22:13:49.774Z,0
2023-02-13T22:20:12.845Z,0
2023-02-13T22:26:32.759Z,0
2023-02-13T22:32:55.753Z,0
2023-02-13T22:39:15.822Z,0
2023-02-13T22:45:38.821Z,0
2023-02-13T22:51:58.887Z,0
2023-02-13T22:58:21.952Z,0
2023-02-13T23:21:19.785Z,0
2023-02-13T23:27:39.730Z,0
2023-02-13T23:34:02.831Z,0
2023-02-13T23:40:22.809Z,0
2023-02-13T23:46:45.984Z,0
2023-02-13T23:53:05.851Z,0
2023-02-13T23:59:28.823Z,0
